Time,TemperatureF,DewpointF,PressureIn,WindDirection,WindDirectionDegrees,WindSpeedMPH,WindSpeedGustMPH,Humidity,HourlyPrecipIn,Conditions,Clouds,dailyrainin,SoftwareType,DateUTC
2013-05-03 00:07:00,68.6,10.0,30.01,WNW,302,0.0,-999.0,10,-99.99,,,0.00,weatherlink.com 1.10,2013-05-03 07:07:00,
2013-05-03 00:22:00,66.7,10.0,30.01,WNW,302,0.0,-999.0,11,-99.99,,,0.00,weatherlink.com 1.10,2013-05-03 07:22:00,
2013-05-03 00:37:00,64.5,12.0,30.01,WNW,302,0.0,-999.0,13,-99.99,,,0.00,weatherlink.com 1.10,2013-05-03 07:37:00,
2013-05-03 00:52:00,63.5,12.0,30.01,WNW,302,0.0,-999.0,13,-99.99,,,0.00,weatherlink.com 1.10,2013-05-03 07:52:00,
2013-05-03 01:07:00,61.9,12.0,30.01,WNW,302,0.0,-999.0,14,-99.99,,,0.00,weatherlink.com 1.10,2013-05-03 08:07:00,
2013-05-03 01:22:00,60.6,12.0,30.01,WNW,302,0.0,-999.0,15,-99.99,,,0.00,weatherlink.com 1.10,2013-05-03 08:22:00,
2013-05-03 01:37:00,60.2,12.0,30.01,WNW,302,0.0,-999.0,15,-99.99,,,0.00,weatherlink.com 1.10,2013-05-03 08:37:00,
2013-05-03 01:52:00,59.7,13.0,30.00,WNW,302,0.0,-999.0,16,-99.99,,,0.00,weatherlink.com 1.10,2013-05-03 08:52:00,
2013-05-03 02:07:00,58.9,13.0,30.00,WNW,302,0.0,-999.0,16,-99.99,,,0.00,weatherlink.com 1.10,2013-05-03 09:07:00,
2013-05-03 02:22:00,58.5,12.0,30.00,WNW,302,0.0,-999.0,16,-99.99,,,0.00,weatherlink.com 1.10,2013-05-03 09:22:00,
2013-05-03 02:37:00,58.1,12.0,30.00,WNW,302,0.0,-999.0,16,-99.99,,,0.00,weatherlink.com 1.10,2013-05-03 09:37:00,
2013-05-03 02:52:00,57.1,12.0,30.00,WNW,302,0.0,-999.0,17,-99.99,,,0.00,weatherlink.com 1.10,2013-05-03 09:52:00,
2013-05-03 03:07:00,57.1,14.0,30.00,WNW,302,0.0,-999.0,18,-99.99,,,0.00,weatherlink.com 1.10,2013-05-03 10:07:00,
2013-05-03 03:22:00,57.5,13.0,30.00,WNW,302,0.0,-999.0,17,-99.99,,,0.00,weatherlink.com 1.10,2013-05-03 10:22:00,
2013-05-03 03:37:00,58.7,12.0,30.00,WNW,302,0.0,-999.0,16,-99.99,,,0.00,weatherlink.com 1.10,2013-05-03 10:37:00,
2013-05-03 03:52:00,58.5,11.0,30.00,WNW,302,0.0,-999.0,15,-99.99,,,0.00,weatherlink.com 1.10,2013-05-03 10:52:00,
2013-05-03 04:07:00,58.3,12.0,30.00,WNW,302,0.0,-999.0,16,-99.99,,,0.00,weatherlink.com 1.10,2013-05-03 11:07:00,
2013-05-03 04:22:00,57.4,13.0,30.00,WNW,302,0.0,-999.0,17,-99.99,,,0.00,weatherlink.com 1.10,2013-05-03 11:22:00,
2013-05-03 04:37:00,56.4,12.0,30.00,WNW,302,0.0,-999.0,17,-99.99,,,0.00,weatherlink.com 1.10,2013-05-03 11:37:00,
2013-05-03 04:52:00,56.6,11.0,30.00,WNW,302,0.0,-999.0,16,-99.99,,,0.00,weatherlink.com 1.10,2013-05-03 11:52:00,
2013-05-03 05:07:00,57.4,13.0,30.00,WNW,302,0.0,-999.0,17,-99.99,,,0.00,weatherlink.com 1.10,2013-05-03 12:07:00,
2013-05-03 05:22:00,56.7,11.0,30.00,WNW,302,0.0,-999.0,16,-99.99,,,0.00,weatherlink.com 1.10,2013-05-03 12:22:00,
2013-05-03 05:37:00,56.3,12.0,30.00,WNW,302,0.0,-999.0,17,-99.99,,,0.00,weatherlink.com 1.10,2013-05-03 12:37:00,
2013-05-03 05:52:00,54.8,13.0,30.00,WNW,302,0.0,-999.0,19,-99.99,,,0.00,weatherlink.com 1.10,2013-05-03 12:52:00,
2013-05-03 06:08:00,54.7,13.0,30.00,WNW,302,0.0,-999.0,19,-99.99,,,0.00,weatherlink.com 1.10,2013-05-03 13:08:00,
2013-05-03 06:23:00,56.1,12.0,30.00,WNW,302,0.0,-999.0,17,-99.99,,,0.00,weatherlink.com 1.10,2013-05-03 13:23:00,
2013-05-03 06:38:00,59.4,13.0,30.01,WNW,302,0.0,-999.0,16,-99.99,,,0.00,weatherlink.com 1.10,2013-05-03 13:38:00,
2013-05-03 06:52:00,61.7,16.0,30.01,WNW,302,0.0,-999.0,17,-99.99,,,0.00,weatherlink.com 1.10,2013-05-03 13:52:00,
2013-05-03 07:07:00,64.8,17.0,30.01,WNW,302,0.0,-999.0,16,-99.99,,,0.00,weatherlink.com 1.10,2013-05-03 14:07:00,
2013-05-03 07:22:00,68.7,16.0,30.01,WNW,302,0.0,-999.0,13,-99.99,,,0.00,weatherlink.com 1.10,2013-05-03 14:22:00,
2013-05-03 07:38:00,71.6,14.0,30.01,WNW,302,4.0,-999.0,11,-99.99,,,0.00,weatherlink.com 1.10,2013-05-03 14:38:00,
2013-05-03 07:53:00,74.2,9.0,30.01,WNW,302,2.0,-999.0,8,-99.99,,,0.00,weatherlink.com 1.10,2013-05-03 14:53:00,
2013-05-03 08:08:00,76.6,4.0,30.01,NNE,22,4.0,-999.0,6,-99.99,,,0.00,weatherlink.com 1.10,2013-05-03 15:08:00,
2013-05-03 08:23:00,79.5,3.0,30.01,ENE,71,4.0,-999.0,5,-99.99,,,0.00,weatherlink.com 1.10,2013-05-03 15:23:00,
2013-05-03 08:38:00,80.6,3.0,30.00,ENE,78,4.0,-999.0,5,-99.99,,,0.00,weatherlink.com 1.10,2013-05-03 15:38:00,
2013-05-03 08:53:00,81.0,8.0,30.00,East,83,6.0,-999.0,6,-99.99,,,0.00,weatherlink.com 1.10,2013-05-03 15:53:00,
2013-05-03 09:08:00,81.2,8.0,29.99,East,80,10.0,-999.0,6,-99.99,,,0.00,weatherlink.com 1.10,2013-05-03 16:08:00,
2013-05-03 09:23:00,81.8,8.0,29.99,East,80,4.0,-999.0,6,-99.99,,,0.00,weatherlink.com 1.10,2013-05-03 16:23:00,
2013-05-03 09:38:00,82.4,12.0,29.99,East,86,5.0,-999.0,7,-99.99,,,0.00,weatherlink.com 1.10,2013-05-03 16:38:00,
2013-05-03 09:53:00,83.0,13.0,29.99,ESE,123,6.0,-999.0,7,-99.99,,,0.00,weatherlink.com 1.10,2013-05-03 16:53:00,
2013-05-03 10:08:00,84.1,10.0,29.98,East,101,6.0,-999.0,6,-99.99,,,0.00,weatherlink.com 1.10,2013-05-03 17:08:00,
2013-05-03 10:23:00,84.4,10.0,29.98,ESE,119,0.0,-999.0,6,-99.99,,,0.00,weatherlink.com 1.10,2013-05-03 17:23:00,
2013-05-03 10:38:00,85.2,11.0,29.97,East,85,3.0,-999.0,6,-99.99,,,0.00,weatherlink.com 1.10,2013-05-03 17:38:00,
2013-05-03 10:53:00,86.1,7.0,29.97,East,94,1.0,-999.0,5,-99.99,,,0.00,weatherlink.com 1.10,2013-05-03 17:53:00,
2013-05-03 11:08:00,86.2,12.0,29.97,SE,146,6.0,-999.0,6,-99.99,,,0.00,weatherlink.com 1.10,2013-05-03 18:08:00,
2013-05-03 11:23:00,87.5,13.0,29.96,East,96,4.0,-999.0,6,-99.99,,,0.00,weatherlink.com 1.10,2013-05-03 18:23:00,
2013-05-03 11:38:00,87.2,8.0,29.95,ENE,65,4.0,-999.0,5,-99.99,,,0.00,weatherlink.com 1.10,2013-05-03 18:38:00,
2013-05-03 11:53:00,87.9,9.0,29.94,East,82,0.0,-999.0,5,-99.99,,,0.00,weatherlink.com 1.10,2013-05-03 18:53:00,
2013-05-03 12:08:00,88.7,9.0,29.93,SSE,155,5.0,-999.0,5,-99.99,,,0.00,weatherlink.com 1.10,2013-05-03 19:08:00,
2013-05-03 12:23:00,89.9,10.0,29.93,NE,45,5.0,-999.0,5,-99.99,,,0.00,weatherlink.com 1.10,2013-05-03 19:23:00,
2013-05-03 12:38:00,89.3,10.0,29.92,NNE,15,7.0,-999.0,5,-99.99,,,0.00,weatherlink.com 1.10,2013-05-03 19:38:00,
2013-05-03 12:53:00,90.1,5.0,29.91,NE,42,3.0,-999.0,4,-99.99,,,0.00,weatherlink.com 1.10,2013-05-03 19:53:00,
2013-05-03 13:09:00,90.9,6.0,29.90,ENE,71,4.0,-999.0,4,-99.99,,,0.00,weatherlink.com 1.10,2013-05-03 20:09:00,
2013-05-03 13:24:00,90.5,6.0,29.90,SE,129,4.0,-999.0,4,-99.99,,,0.00,weatherlink.com 1.10,2013-05-03 20:24:00,
2013-05-03 13:39:00,91.1,6.0,29.89,North,9,0.0,-999.0,4,-99.99,,,0.00,weatherlink.com 1.10,2013-05-03 20:39:00,
2013-05-03 13:54:00,91.8,6.0,29.88,WNW,287,2.0,-999.0,4,-99.99,,,0.00,weatherlink.com 1.10,2013-05-03 20:54:00,
2013-05-03 14:09:00,92.0,7.0,29.86,WSW,250,1.0,-999.0,4,-99.99,,,0.00,weatherlink.com 1.10,2013-05-03 21:09:00,
2013-05-03 14:24:00,92.2,7.0,29.85,WSW,254,2.0,-999.0,4,-99.99,,,0.00,weatherlink.com 1.10,2013-05-03 21:24:00,
2013-05-03 14:39:00,93.0,7.0,29.84,WSW,250,3.0,-999.0,4,-99.99,,,0.00,weatherlink.com 1.10,2013-05-03 21:39:00,
2013-05-03 14:54:00,93.1,7.0,29.83,West,280,2.0,-999.0,4,-99.99,,,0.00,weatherlink.com 1.10,2013-05-03 21:54:00,
2013-05-03 15:09:00,93.8,8.0,29.82,West,265,5.0,-999.0,4,-99.99,,,0.00,weatherlink.com 1.10,2013-05-03 22:09:00,
2013-05-03 15:24:00,92.7,7.0,29.81,WNW,291,4.0,-999.0,4,-99.99,,,0.00,weatherlink.com 1.10,2013-05-03 22:24:00,
2013-05-03 15:39:00,92.9,7.0,29.81,NNW,331,0.0,-999.0,4,-99.99,,,0.00,weatherlink.com 1.10,2013-05-03 22:39:00,
2013-05-03 15:54:00,93.0,7.0,29.80,West,281,4.0,-999.0,4,-99.99,,,0.00,weatherlink.com 1.10,2013-05-03 22:54:00,
2013-05-03 16:09:00,93.6,8.0,29.79,WSW,254,5.0,-999.0,4,-99.99,,,0.00,weatherlink.com 1.10,2013-05-03 23:09:00,
2013-05-03 16:24:00,93.5,8.0,29.79,WSW,254,0.0,-999.0,4,-99.99,,,0.00,weatherlink.com 1.10,2013-05-03 23:24:00,
2013-05-03 16:39:00,94.2,8.0,29.79,WSW,254,2.0,-999.0,4,-99.99,,,0.00,weatherlink.com 1.10,2013-05-03 23:39:00,
2013-05-03 16:54:00,93.9,8.0,29.78,WSW,254,0.0,-999.0,4,-99.99,,,0.00,weatherlink.com 1.10,2013-05-03 23:54:00,
2013-05-03 17:09:00,93.0,7.0,29.78,SW,223,1.0,-999.0,4,-99.99,,,0.00,weatherlink.com 1.10,2013-05-04 00:09:00,
2013-05-03 17:24:00,93.1,7.0,29.77,NW,305,2.0,-999.0,4,-99.99,,,0.00,weatherlink.com 1.10,2013-05-04 00:24:00,
2013-05-03 17:40:00,93.0,7.0,29.77,North,349,6.0,-999.0,4,-99.99,,,0.00,weatherlink.com 1.10,2013-05-04 00:40:00,
2013-05-03 17:54:00,91.9,7.0,29.77,NNW,333,0.0,-999.0,4,-99.99,,,0.00,weatherlink.com 1.10,2013-05-04 00:54:00,
2013-05-03 18:09:00,90.9,11.0,29.77,WNW,298,0.0,-999.0,5,-99.99,,,0.00,weatherlink.com 1.10,2013-05-04 01:09:00,
2013-05-03 18:25:00,90.8,11.0,29.76,NW,307,5.0,-999.0,5,-99.99,,,0.00,weatherlink.com 1.10,2013-05-04 01:25:00,
2013-05-03 18:39:00,90.2,10.0,29.76,NW,309,1.0,-999.0,5,-99.99,,,0.00,weatherlink.com 1.10,2013-05-04 01:39:00,
2013-05-03 18:54:00,89.0,10.0,29.76,NW,314,6.0,-999.0,5,-99.99,,,0.00,weatherlink.com 1.10,2013-05-04 01:54:00,
2013-05-03 19:10:00,88.0,9.0,29.76,NW,314,0.0,-999.0,5,-99.99,,,0.00,weatherlink.com 1.10,2013-05-04 02:10:00,
2013-05-03 19:24:00,86.8,8.0,29.76,NW,314,2.0,-999.0,5,-99.99,,,0.00,weatherlink.com 1.10,2013-05-04 02:24:00,
2013-05-03 19:39:00,85.4,7.0,29.76,NW,314,0.0,-999.0,5,-99.99,,,0.00,weatherlink.com 1.10,2013-05-04 02:39:00,
2013-05-03 19:55:00,83.8,10.0,29.76,NW,314,0.0,-999.0,6,-99.99,,,0.00,weatherlink.com 1.10,2013-05-04 02:55:00,
2013-05-03 20:09:00,82.3,12.0,29.76,NW,314,0.0,-999.0,7,-99.99,,,0.00,weatherlink.com 1.10,2013-05-04 03:09:00,
2013-05-03 20:25:00,80.0,13.0,29.76,NW,314,0.0,-999.0,8,-99.99,,,0.00,weatherlink.com 1.10,2013-05-04 03:25:00,
2013-05-03 20:39:00,77.8,14.0,29.77,NW,314,0.0,-999.0,9,-99.99,,,0.00,weatherlink.com 1.10,2013-05-04 03:39:00,
2013-05-03 20:55:00,76.4,16.0,29.77,NW,314,0.0,-999.0,10,-99.99,,,0.00,weatherlink.com 1.10,2013-05-04 03:55:00,
2013-05-03 21:10:00,74.8,15.0,29.77,NW,314,0.0,-999.0,10,-99.99,,,0.00,weatherlink.com 1.10,2013-05-04 04:10:00,
2013-05-03 21:25:00,74.0,16.0,29.77,NW,314,0.0,-999.0,11,-99.99,,,0.00,weatherlink.com 1.10,2013-05-04 04:25:00,
2013-05-03 21:40:00,72.6,17.0,29.77,NW,314,0.0,-999.0,12,-99.99,,,0.00,weatherlink.com 1.10,2013-05-04 04:40:00,
2013-05-03 21:55:00,72.4,15.0,29.77,NW,314,0.0,-999.0,11,-99.99,,,0.00,weatherlink.com 1.10,2013-05-04 04:55:00,
2013-05-03 22:10:00,72.5,15.0,29.77,NW,314,0.0,-999.0,11,-99.99,,,0.00,weatherlink.com 1.10,2013-05-04 05:10:00,
2013-05-03 22:25:00,71.8,14.0,29.77,NW,314,0.0,-999.0,11,-99.99,,,0.00,weatherlink.com 1.10,2013-05-04 05:25:00,
2013-05-03 22:40:00,71.5,14.0,29.76,NW,314,0.0,-999.0,11,-99.99,,,0.00,weatherlink.com 1.10,2013-05-04 05:40:00,
2013-05-03 22:55:00,71.4,14.0,29.76,NW,314,0.0,-999.0,11,-99.99,,,0.00,weatherlink.com 1.10,2013-05-04 05:55:00,
2013-05-03 23:10:00,71.5,14.0,29.76,NW,314,0.0,-999.0,11,-99.99,,,0.00,weatherlink.com 1.10,2013-05-04 06:10:00,
2013-05-03 23:25:00,70.3,17.0,29.75,NW,314,0.0,-999.0,13,-99.99,,,0.00,weatherlink.com 1.10,2013-05-04 06:25:00,
2013-05-03 23:40:00,69.8,15.0,29.75,NW,314,0.0,-999.0,12,-99.99,,,0.00,weatherlink.com 1.10,2013-05-04 06:40:00,
2013-05-03 23:55:00,69.9,15.0,29.75,NW,314,0.0,-999.0,12,-99.99,,,0.00,weatherlink.com 1.10,2013-05-04 06:55:00,